sensor_id;sensor_type;location;lat;lon;timestamp;P1;durP1;ratioP1;P2;durP2;ratioP2
17510;SDS011;8873;48.818;9.422;2023-03-23T00:01:01;6.55;;;3.85;;
17510;SDS011;8873;48.818;9.422;2023-03-23T00:03:29;8.20;;;4.32;;
17510;SDS011;8873;48.818;9.422;2023-03-23T00:05:57;11.25;;;4.65;;
17510;SDS011;8873;48.818;9.422;2023-03-23T00:08:25;8.18;;;4.00;;
17510;SDS011;8873;48.818;9.422;2023-03-23T00:10:51;7.75;;;3.85;;
17510;SDS011;8873;48.818;9.422;2023-03-23T00:13:22;5.10;;;3.63;;
17510;SDS011;8873;48.818;9.422;2023-03-23T00:15:48;7.22;;;4.25;;
17510;SDS011;8873;48.818;9.422;2023-03-23T00:18:17;8.88;;;4.13;;
17510;SDS011;8873;48.818;9.422;2023-03-23T00:20:49;7.10;;;4.43;;
17510;SDS011;8873;48.818;9.422;2023-03-23T00:23:16;6.30;;;4.22;;
17510;SDS011;8873;48.818;9.422;2023-03-23T00:25:45;5.38;;;3.72;;
17510;SDS011;8873;48.818;9.422;2023-03-23T00:28:11;7.20;;;3.50;;
17510;SDS011;8873;48.818;9.422;2023-03-23T00:30:38;7.38;;;3.75;;
17510;SDS011;8873;48.818;9.422;2023-03-23T00:33:04;6.05;;;3.63;;
17510;SDS011;8873;48.818;9.422;2023-03-23T00:35:31;4.82;;;3.45;;
17510;SDS011;8873;48.818;9.422;2023-03-23T00:37:59;3.28;;;2.97;;
17510;SDS011;8873;48.818;9.422;2023-03-23T00:40:25;5.35;;;3.67;;
17510;SDS011;8873;48.818;9.422;2023-03-23T00:42:52;6.85;;;2.88;;
17510;SDS011;8873;48.818;9.422;2023-03-23T00:45:18;5.72;;;3.47;;
17510;SDS011;8873;48.818;9.422;2023-03-23T00:47:45;4.60;;;4.00;;
17510;SDS011;8873;48.818;9.422;2023-03-23T00:50:16;6.15;;;3.60;;
17510;SDS011;8873;48.818;9.422;2023-03-23T00:52:43;6.00;;;3.55;;
17510;SDS011;8873;48.818;9.422;2023-03-23T00:55:10;6.50;;;3.40;;
17510;SDS011;8873;48.818;9.422;2023-03-23T00:57:37;4.45;;;3.00;;
17510;SDS011;8873;48.818;9.422;2023-03-23T01:00:04;3.13;;;2.70;;
17510;SDS011;8873;48.818;9.422;2023-03-23T01:02:34;4.13;;;2.80;;
17510;SDS011;8873;48.818;9.422;2023-03-23T01:05:00;4.13;;;2.60;;
17510;SDS011;8873;48.818;9.422;2023-03-23T01:07:28;2.42;;;2.20;;
17510;SDS011;8873;48.818;9.422;2023-03-23T01:09:56;3.42;;;2.83;;
17510;SDS011;8873;48.818;9.422;2023-03-23T01:12:24;4.10;;;2.90;;
17510;SDS011;8873;48.818;9.422;2023-03-23T01:14:50;4.53;;;2.90;;
17510;SDS011;8873;48.818;9.422;2023-03-23T01:17:17;11.07;;;4.03;;
17510;SDS011;8873;48.818;9.422;2023-03-23T01:19:43;6.35;;;3.50;;
17510;SDS011;8873;48.818;9.422;2023-03-23T01:22:10;5.10;;;3.80;;
17510;SDS011;8873;48.818;9.422;2023-03-23T01:24:36;9.15;;;3.80;;
17510;SDS011;8873;48.818;9.422;2023-03-23T01:27:03;7.68;;;3.83;;
17510;SDS011;8873;48.818;9.422;2023-03-23T01:29:33;6.18;;;3.20;;
17510;SDS011;8873;48.818;9.422;2023-03-23T01:31:59;7.55;;;4.00;;
17510;SDS011;8873;48.818;9.422;2023-03-23T01:34:26;6.90;;;4.15;;
17510;SDS011;8873;48.818;9.422;2023-03-23T01:36:52;9.32;;;3.95;;
17510;SDS011;8873;48.818;9.422;2023-03-23T01:39:19;5.10;;;3.90;;
17510;SDS011;8873;48.818;9.422;2023-03-23T01:41:46;8.50;;;4.65;;
17510;SDS011;8873;48.818;9.422;2023-03-23T01:47:01;10.30;;;4.55;;
17510;SDS011;8873;48.818;9.422;2023-03-23T01:49:29;7.82;;;4.05;;
17510;SDS011;8873;48.818;9.422;2023-03-23T01:51:58;8.35;;;3.75;;
17510;SDS011;8873;48.818;9.422;2023-03-23T01:54:26;4.68;;;3.78;;
17510;SDS011;8873;48.818;9.422;2023-03-23T01:56:54;5.30;;;3.95;;
17510;SDS011;8873;48.818;9.422;2023-03-23T01:59:21;6.35;;;3.80;;
17510;SDS011;8873;48.818;9.422;2023-03-23T02:01:49;7.90;;;4.00;;
17510;SDS011;8873;48.818;9.422;2023-03-23T02:04:18;5.63;;;3.92;;
17510;SDS011;8873;48.818;9.422;2023-03-23T02:06:45;7.95;;;4.18;;
17510;SDS011;8873;48.818;9.422;2023-03-23T02:09:13;8.48;;;3.78;;
17510;SDS011;8873;48.818;9.422;2023-03-23T02:11:42;4.20;;;3.75;;
17510;SDS011;8873;48.818;9.422;2023-03-23T02:14:08;9.10;;;3.90;;
17510;SDS011;8873;48.818;9.422;2023-03-23T02:16:37;4.22;;;3.72;;
17510;SDS011;8873;48.818;9.422;2023-03-23T02:19:12;7.30;;;3.95;;
17510;SDS011;8873;48.818;9.422;2023-03-23T02:24:47;5.80;;;3.78;;
17510;SDS011;8873;48.818;9.422;2023-03-23T02:27:17;6.38;;;3.95;;
17510;SDS011;8873;48.818;9.422;2023-03-23T02:29:48;6.55;;;3.50;;
17510;SDS011;8873;48.818;9.422;2023-03-23T02:32:22;8.45;;;3.80;;
17510;SDS011;8873;48.818;9.422;2023-03-23T02:34:55;6.10;;;3.53;;
17510;SDS011;8873;48.818;9.422;2023-03-23T02:37:24;4.43;;;3.40;;
17510;SDS011;8873;48.818;9.422;2023-03-23T02:39:53;4.18;;;3.33;;
17510;SDS011;8873;48.818;9.422;2023-03-23T02:42:23;5.03;;;3.00;;
17510;SDS011;8873;48.818;9.422;2023-03-23T02:44:50;5.25;;;3.28;;
17510;SDS011;8873;48.818;9.422;2023-03-23T02:47:19;3.85;;;3.00;;
17510;SDS011;8873;48.818;9.422;2023-03-23T02:49:48;4.25;;;3.10;;
17510;SDS011;8873;48.818;9.422;2023-03-23T02:52:18;4.45;;;3.20;;
17510;SDS011;8873;48.818;9.422;2023-03-23T02:54:46;3.63;;;3.00;;
17510;SDS011;8873;48.818;9.422;2023-03-23T02:57:14;4.25;;;3.38;;
17510;SDS011;8873;48.818;9.422;2023-03-23T02:59:41;3.83;;;3.00;;
17510;SDS011;8873;48.818;9.422;2023-03-23T03:02:07;3.38;;;2.78;;
17510;SDS011;8873;48.818;9.422;2023-03-23T03:04:35;4.57;;;3.08;;
17510;SDS011;8873;48.818;9.422;2023-03-23T03:07:07;6.90;;;3.47;;
17510;SDS011;8873;48.818;9.422;2023-03-23T03:09:42;6.25;;;3.13;;
17510;SDS011;8873;48.818;9.422;2023-03-23T03:12:12;12.13;;;3.80;;
17510;SDS011;8873;48.818;9.422;2023-03-23T03:14:44;8.70;;;3.47;;
17510;SDS011;8873;48.818;9.422;2023-03-23T03:17:13;5.28;;;3.10;;
17510;SDS011;8873;48.818;9.422;2023-03-23T03:19:44;4.80;;;3.10;;
17510;SDS011;8873;48.818;9.422;2023-03-23T03:22:12;7.78;;;3.47;;
17510;SDS011;8873;48.818;9.422;2023-03-23T03:24:39;5.65;;;2.97;;
17510;SDS011;8873;48.818;9.422;2023-03-23T03:27:11;6.00;;;3.47;;
17510;SDS011;8873;48.818;9.422;2023-03-23T03:29:40;7.70;;;3.50;;
17510;SDS011;8873;48.818;9.422;2023-03-23T03:32:11;5.60;;;3.20;;
17510;SDS011;8873;48.818;9.422;2023-03-23T03:34:38;4.95;;;3.10;;
17510;SDS011;8873;48.818;9.422;2023-03-23T03:37:04;7.18;;;3.30;;
17510;SDS011;8873;48.818;9.422;2023-03-23T03:39:33;7.90;;;3.47;;
17510;SDS011;8873;48.818;9.422;2023-03-23T03:42:00;5.28;;;3.38;;
17510;SDS011;8873;48.818;9.422;2023-03-23T03:44:28;6.63;;;3.60;;
17510;SDS011;8873;48.818;9.422;2023-03-23T03:46:55;8.75;;;3.65;;
17510;SDS011;8873;48.818;9.422;2023-03-23T03:49:21;6.20;;;3.40;;
17510;SDS011;8873;48.818;9.422;2023-03-23T03:51:48;6.70;;;3.80;;
17510;SDS011;8873;48.818;9.422;2023-03-23T03:54:15;3.67;;;2.70;;
17510;SDS011;8873;48.818;9.422;2023-03-23T03:56:41;2.95;;;2.72;;
17510;SDS011;8873;48.818;9.422;2023-03-23T03:59:08;3.80;;;2.95;;
17510;SDS011;8873;48.818;9.422;2023-03-23T04:01:36;3.60;;;2.55;;
17510;SDS011;8873;48.818;9.422;2023-03-23T04:04:03;4.43;;;2.95;;
17510;SDS011;8873;48.818;9.422;2023-03-23T04:06:32;3.42;;;2.40;;
17510;SDS011;8873;48.818;9.422;2023-03-23T04:09:01;4.93;;;2.45;;
17510;SDS011;8873;48.818;9.422;2023-03-23T04:11:31;2.65;;;2.45;;
17510;SDS011;8873;48.818;9.422;2023-03-23T04:13:57;3.65;;;2.50;;
17510;SDS011;8873;48.818;9.422;2023-03-23T04:16:24;2.63;;;2.38;;
17510;SDS011;8873;48.818;9.422;2023-03-23T04:18:52;2.40;;;2.20;;
17510;SDS011;8873;48.818;9.422;2023-03-23T04:21:21;2.85;;;2.20;;
17510;SDS011;8873;48.818;9.422;2023-03-23T04:23:47;3.13;;;2.42;;
17510;SDS011;8873;48.818;9.422;2023-03-23T04:26:14;2.53;;;2.08;;
17510;SDS011;8873;48.818;9.422;2023-03-23T04:28:40;2.00;;;1.90;;
17510;SDS011;8873;48.818;9.422;2023-03-23T04:31:07;3.03;;;2.00;;
17510;SDS011;8873;48.818;9.422;2023-03-23T04:33:37;2.33;;;2.17;;
17510;SDS011;8873;48.818;9.422;2023-03-23T04:36:07;4.80;;;2.20;;
17510;SDS011;8873;48.818;9.422;2023-03-23T04:38:33;4.40;;;3.20;;
17510;SDS011;8873;48.818;9.422;2023-03-23T04:41:00;49.70;;;16.92;;
17510;SDS011;8873;48.818;9.422;2023-03-23T04:43:28;49.92;;;15.40;;
17510;SDS011;8873;48.818;9.422;2023-03-23T04:45:54;9.05;;;4.03;;
17510;SDS011;8873;48.818;9.422;2023-03-23T04:48:22;5.82;;;3.22;;
17510;SDS011;8873;48.818;9.422;2023-03-23T04:50:49;5.97;;;3.10;;
17510;SDS011;8873;48.818;9.422;2023-03-23T04:53:17;3.58;;;2.60;;
17510;SDS011;8873;48.818;9.422;2023-03-23T04:55:44;5.47;;;3.08;;
17510;SDS011;8873;48.818;9.422;2023-03-23T04:58:11;5.70;;;2.92;;
17510;SDS011;8873;48.818;9.422;2023-03-23T05:00:40;7.85;;;2.70;;
17510;SDS011;8873;48.818;9.422;2023-03-23T05:03:08;3.80;;;2.60;;
17510;SDS011;8873;48.818;9.422;2023-03-23T05:05:35;7.05;;;3.05;;
17510;SDS011;8873;48.818;9.422;2023-03-23T05:08:02;4.72;;;3.22;;
17510;SDS011;8873;48.818;9.422;2023-03-23T05:10:30;7.15;;;2.53;;
17510;SDS011;8873;48.818;9.422;2023-03-23T05:12:56;5.75;;;2.80;;
17510;SDS011;8873;48.818;9.422;2023-03-23T05:15:23;4.35;;;3.20;;
17510;SDS011;8873;48.818;9.422;2023-03-23T05:17:52;3.90;;;2.80;;
17510;SDS011;8873;48.818;9.422;2023-03-23T05:20:19;8.02;;;3.10;;
17510;SDS011;8873;48.818;9.422;2023-03-23T05:22:46;3.60;;;2.90;;
17510;SDS011;8873;48.818;9.422;2023-03-23T05:25:14;4.40;;;3.13;;
17510;SDS011;8873;48.818;9.422;2023-03-23T05:27:45;6.30;;;3.70;;
17510;SDS011;8873;48.818;9.422;2023-03-23T05:30:14;4.90;;;3.45;;
17510;SDS011;8873;48.818;9.422;2023-03-23T05:32:42;5.43;;;3.35;;
17510;SDS011;8873;48.818;9.422;2023-03-23T05:35:10;4.55;;;3.30;;
17510;SDS011;8873;48.818;9.422;2023-03-23T05:37:40;5.72;;;3.55;;
17510;SDS011;8873;48.818;9.422;2023-03-23T05:40:07;6.47;;;3.42;;
17510;SDS011;8873;48.818;9.422;2023-03-23T05:42:33;5.60;;;3.10;;
17510;SDS011;8873;48.818;9.422;2023-03-23T05:45:02;11.18;;;4.15;;
17510;SDS011;8873;48.818;9.422;2023-03-23T05:47:29;8.30;;;4.18;;
17510;SDS011;8873;48.818;9.422;2023-03-23T05:49:56;16.15;;;5.35;;
17510;SDS011;8873;48.818;9.422;2023-03-23T05:52:23;8.93;;;4.00;;
17510;SDS011;8873;48.818;9.422;2023-03-23T05:54:53;4.85;;;4.05;;
17510;SDS011;8873;48.818;9.422;2023-03-23T05:57:19;8.52;;;3.90;;
17510;SDS011;8873;48.818;9.422;2023-03-23T05:59:47;10.93;;;3.90;;
17510;SDS011;8873;48.818;9.422;2023-03-23T06:02:16;9.05;;;3.58;;
17510;SDS011;8873;48.818;9.422;2023-03-23T06:04:42;6.35;;;3.83;;
17510;SDS011;8873;48.818;9.422;2023-03-23T06:07:10;6.60;;;3.65;;
17510;SDS011;8873;48.818;9.422;2023-03-23T06:09:38;14.40;;;4.20;;
17510;SDS011;8873;48.818;9.422;2023-03-23T06:12:05;6.30;;;4.13;;
17510;SDS011;8873;48.818;9.422;2023-03-23T06:14:32;7.72;;;3.92;;
17510;SDS011;8873;48.818;9.422;2023-03-23T06:16:58;7.40;;;3.63;;
17510;SDS011;8873;48.818;9.422;2023-03-23T06:19:26;10.60;;;3.90;;
17510;SDS011;8873;48.818;9.422;2023-03-23T06:21:53;5.60;;;3.70;;
17510;SDS011;8873;48.818;9.422;2023-03-23T06:24:20;5.75;;;3.25;;
17510;SDS011;8873;48.818;9.422;2023-03-23T06:26:47;9.05;;;4.10;;
17510;SDS011;8873;48.818;9.422;2023-03-23T06:29:14;10.13;;;3.53;;
17510;SDS011;8873;48.818;9.422;2023-03-23T06:31:41;6.22;;;3.28;;
17510;SDS011;8873;48.818;9.422;2023-03-23T06:34:08;5.10;;;3.05;;
17510;SDS011;8873;48.818;9.422;2023-03-23T06:36:36;9.43;;;3.90;;
17510;SDS011;8873;48.818;9.422;2023-03-23T06:39:03;8.10;;;3.67;;
17510;SDS011;8873;48.818;9.422;2023-03-23T06:41:30;4.00;;;3.28;;
17510;SDS011;8873;48.818;9.422;2023-03-23T06:43:57;7.30;;;3.70;;
17510;SDS011;8873;48.818;9.422;2023-03-23T06:46:23;5.95;;;3.80;;
17510;SDS011;8873;48.818;9.422;2023-03-23T06:48:49;8.77;;;3.70;;
17510;SDS011;8873;48.818;9.422;2023-03-23T06:51:16;6.07;;;3.63;;
17510;SDS011;8873;48.818;9.422;2023-03-23T06:53:44;6.78;;;3.50;;
17510;SDS011;8873;48.818;9.422;2023-03-23T06:56:11;8.70;;;3.58;;
17510;SDS011;8873;48.818;9.422;2023-03-23T06:58:38;6.13;;;3.78;;
17510;SDS011;8873;48.818;9.422;2023-03-23T07:01:05;11.48;;;5.68;;
17510;SDS011;8873;48.818;9.422;2023-03-23T07:03:32;7.93;;;5.55;;
17510;SDS011;8873;48.818;9.422;2023-03-23T07:05:58;9.60;;;5.95;;
17510;SDS011;8873;48.818;9.422;2023-03-23T07:08:25;13.77;;;4.85;;
17510;SDS011;8873;48.818;9.422;2023-03-23T07:10:54;8.75;;;4.95;;
17510;SDS011;8873;48.818;9.422;2023-03-23T07:13:21;10.02;;;5.50;;
17510;SDS011;8873;48.818;9.422;2023-03-23T07:15:47;13.88;;;6.00;;
17510;SDS011;8873;48.818;9.422;2023-03-23T07:18:15;12.60;;;4.50;;
17510;SDS011;8873;48.818;9.422;2023-03-23T07:20:42;10.25;;;4.55;;
17510;SDS011;8873;48.818;9.422;2023-03-23T07:23:08;10.07;;;4.25;;
17510;SDS011;8873;48.818;9.422;2023-03-23T07:25:35;5.97;;;4.13;;
17510;SDS011;8873;48.818;9.422;2023-03-23T07:28:03;7.68;;;3.97;;
17510;SDS011;8873;48.818;9.422;2023-03-23T07:30:30;64.18;;;14.27;;
17510;SDS011;8873;48.818;9.422;2023-03-23T07:32:56;156.23;;;31.15;;
17510;SDS011;8873;48.818;9.422;2023-03-23T07:35:23;71.15;;;15.55;;
17510;SDS011;8873;48.818;9.422;2023-03-23T07:37:50;54.53;;;12.90;;
17510;SDS011;8873;48.818;9.422;2023-03-23T07:40:17;57.40;;;12.07;;
17510;SDS011;8873;48.818;9.422;2023-03-23T07:42:44;30.85;;;8.60;;
17510;SDS011;8873;48.818;9.422;2023-03-23T07:45:12;18.67;;;5.45;;
17510;SDS011;8873;48.818;9.422;2023-03-23T07:47:40;11.20;;;4.18;;
17510;SDS011;8873;48.818;9.422;2023-03-23T07:50:07;14.63;;;7.90;;
17510;SDS011;8873;48.818;9.422;2023-03-23T07:52:33;10.25;;;6.15;;
17510;SDS011;8873;48.818;9.422;2023-03-23T07:55:00;7.15;;;4.18;;
17510;SDS011;8873;48.818;9.422;2023-03-23T07:57:27;3.33;;;2.70;;
17510;SDS011;8873;48.818;9.422;2023-03-23T07:59:54;5.80;;;3.67;;
17510;SDS011;8873;48.818;9.422;2023-03-23T08:02:23;7.97;;;3.30;;
17510;SDS011;8873;48.818;9.422;2023-03-23T08:04:49;7.82;;;2.83;;
17510;SDS011;8873;48.818;9.422;2023-03-23T08:07:16;5.28;;;2.78;;
17510;SDS011;8873;48.818;9.422;2023-03-23T08:09:44;41.47;;;10.32;;
17510;SDS011;8873;48.818;9.422;2023-03-23T08:12:10;6.63;;;3.42;;
17510;SDS011;8873;48.818;9.422;2023-03-23T08:14:37;15.50;;;4.28;;
17510;SDS011;8873;48.818;9.422;2023-03-23T08:17:04;11.57;;;3.33;;
17510;SDS011;8873;48.818;9.422;2023-03-23T08:19:32;14.85;;;3.90;;
17510;SDS011;8873;48.818;9.422;2023-03-23T08:22:02;3.00;;;2.00;;
17510;SDS011;8873;48.818;9.422;2023-03-23T08:24:28;2.13;;;1.95;;
17510;SDS011;8873;48.818;9.422;2023-03-23T08:26:55;4.90;;;2.30;;
17510;SDS011;8873;48.818;9.422;2023-03-23T08:29:21;4.03;;;2.30;;
17510;SDS011;8873;48.818;9.422;2023-03-23T08:31:47;4.70;;;2.65;;
17510;SDS011;8873;48.818;9.422;2023-03-23T08:34:14;5.15;;;2.50;;
17510;SDS011;8873;48.818;9.422;2023-03-23T08:36:42;2.67;;;2.22;;
17510;SDS011;8873;48.818;9.422;2023-03-23T08:39:11;5.18;;;2.30;;
17510;SDS011;8873;48.818;9.422;2023-03-23T08:41:39;4.30;;;2.50;;
17510;SDS011;8873;48.818;9.422;2023-03-23T08:44:05;4.38;;;2.13;;
17510;SDS011;8873;48.818;9.422;2023-03-23T08:46:33;6.30;;;2.97;;
17510;SDS011;8873;48.818;9.422;2023-03-23T08:48:59;3.05;;;2.17;;
17510;SDS011;8873;48.818;9.422;2023-03-23T08:51:26;2.80;;;2.60;;
17510;SDS011;8873;48.818;9.422;2023-03-23T08:53:54;2.05;;;1.95;;
17510;SDS011;8873;48.818;9.422;2023-03-23T08:56:20;2.60;;;2.10;;
17510;SDS011;8873;48.818;9.422;2023-03-23T08:58:47;3.83;;;2.42;;
17510;SDS011;8873;48.818;9.422;2023-03-23T09:01:14;3.58;;;2.05;;
17510;SDS011;8873;48.818;9.422;2023-03-23T09:03:40;4.95;;;2.40;;
17510;SDS011;8873;48.818;9.422;2023-03-23T09:06:07;3.70;;;2.30;;
17510;SDS011;8873;48.818;9.422;2023-03-23T09:08:34;3.08;;;2.38;;
17510;SDS011;8873;48.818;9.422;2023-03-23T09:11:04;2.72;;;2.22;;
17510;SDS011;8873;48.818;9.422;2023-03-23T09:13:32;2.00;;;1.90;;
17510;SDS011;8873;48.818;9.422;2023-03-23T09:15:58;2.30;;;2.10;;
17510;SDS011;8873;48.818;9.422;2023-03-23T09:18:25;3.00;;;2.70;;
17510;SDS011;8873;48.818;9.422;2023-03-23T09:20:52;2.65;;;1.95;;
17510;SDS011;8873;48.818;9.422;2023-03-23T09:23:18;3.20;;;2.88;;
17510;SDS011;8873;48.818;9.422;2023-03-23T09:25:45;6.32;;;2.83;;
17510;SDS011;8873;48.818;9.422;2023-03-23T09:28:13;3.03;;;2.42;;
17510;SDS011;8873;48.818;9.422;2023-03-23T09:30:40;3.15;;;2.85;;
17510;SDS011;8873;48.818;9.422;2023-03-23T09:33:07;4.38;;;1.95;;
17510;SDS011;8873;48.818;9.422;2023-03-23T09:35:34;3.00;;;2.20;;
17510;SDS011;8873;48.818;9.422;2023-03-23T09:38:02;3.05;;;2.72;;
17510;SDS011;8873;48.818;9.422;2023-03-23T09:40:30;4.30;;;3.03;;
17510;SDS011;8873;48.818;9.422;2023-03-23T09:43:04;3.03;;;2.15;;
17510;SDS011;8873;48.818;9.422;2023-03-23T09:45:35;3.83;;;2.95;;
17510;SDS011;8873;48.818;9.422;2023-03-23T09:48:08;2.42;;;2.15;;
17510;SDS011;8873;48.818;9.422;2023-03-23T09:50:38;3.72;;;2.22;;
17510;SDS011;8873;48.818;9.422;2023-03-23T09:53:08;2.30;;;2.10;;
17510;SDS011;8873;48.818;9.422;2023-03-23T09:55:39;2.28;;;2.05;;
17510;SDS011;8873;48.818;9.422;2023-03-23T09:58:09;2.22;;;2.03;;
17510;SDS011;8873;48.818;9.422;2023-03-23T10:00:38;2.67;;;2.47;;
17510;SDS011;8873;48.818;9.422;2023-03-23T10:03:07;2.90;;;1.92;;
17510;SDS011;8873;48.818;9.422;2023-03-23T10:05:38;4.63;;;2.15;;
17510;SDS011;8873;48.818;9.422;2023-03-23T10:08:09;2.08;;;1.98;;
17510;SDS011;8873;48.818;9.422;2023-03-23T10:10:40;4.35;;;2.47;;
17510;SDS011;8873;48.818;9.422;2023-03-23T10:13:12;2.72;;;2.55;;
17510;SDS011;8873;48.818;9.422;2023-03-23T10:15:43;1.65;;;1.55;;
17510;SDS011;8873;48.818;9.422;2023-03-23T10:18:12;3.42;;;1.80;;
17510;SDS011;8873;48.818;9.422;2023-03-23T10:20:42;2.22;;;2.03;;
17510;SDS011;8873;48.818;9.422;2023-03-23T10:23:12;2.00;;;1.90;;
17510;SDS011;8873;48.818;9.422;2023-03-23T10:25:41;3.13;;;1.70;;
17510;SDS011;8873;48.818;9.422;2023-03-23T10:28:10;2.05;;;1.75;;
17510;SDS011;8873;48.818;9.422;2023-03-23T10:30:38;3.72;;;1.90;;
17510;SDS011;8873;48.818;9.422;2023-03-23T10:33:08;1.85;;;1.65;;
17510;SDS011;8873;48.818;9.422;2023-03-23T10:35:36;1.77;;;1.67;;
17510;SDS011;8873;48.818;9.422;2023-03-23T10:38:06;1.88;;;1.80;;
17510;SDS011;8873;48.818;9.422;2023-03-23T10:40:43;2.17;;;1.70;;
17510;SDS011;8873;48.818;9.422;2023-03-23T10:43:10;2.28;;;2.08;;
17510;SDS011;8873;48.818;9.422;2023-03-23T10:45:36;2.53;;;1.70;;
17510;SDS011;8873;48.818;9.422;2023-03-23T10:48:05;2.00;;;1.90;;
17510;SDS011;8873;48.818;9.422;2023-03-23T10:50:35;1.95;;;1.60;;
17510;SDS011;8873;48.818;9.422;2023-03-23T10:53:03;2.67;;;1.92;;
17510;SDS011;8873;48.818;9.422;2023-03-23T10:55:36;2.67;;;1.65;;
17510;SDS011;8873;48.818;9.422;2023-03-23T10:58:04;2.22;;;2.00;;
17510;SDS011;8873;48.818;9.422;2023-03-23T11:00:31;2.70;;;1.70;;
17510;SDS011;8873;48.818;9.422;2023-03-23T11:02:59;3.00;;;1.67;;
17510;SDS011;8873;48.818;9.422;2023-03-23T11:05:27;2.47;;;2.08;;
17510;SDS011;8873;48.818;9.422;2023-03-23T11:07:59;1.95;;;1.85;;
17510;SDS011;8873;48.818;9.422;2023-03-23T11:10:27;1.98;;;1.88;;
17510;SDS011;8873;48.818;9.422;2023-03-23T11:12:56;2.55;;;2.00;;
17510;SDS011;8873;48.818;9.422;2023-03-23T11:15:25;1.85;;;1.75;;
17510;SDS011;8873;48.818;9.422;2023-03-23T11:17:59;4.57;;;1.90;;
17510;SDS011;8873;48.818;9.422;2023-03-23T11:20:27;2.40;;;2.13;;
17510;SDS011;8873;48.818;9.422;2023-03-23T11:22:54;3.22;;;2.42;;
17510;SDS011;8873;48.818;9.422;2023-03-23T11:25:23;4.68;;;2.45;;
17510;SDS011;8873;48.818;9.422;2023-03-23T11:27:51;3.17;;;2.20;;
17510;SDS011;8873;48.818;9.422;2023-03-23T11:30:20;1.92;;;1.83;;
17510;SDS011;8873;48.818;9.422;2023-03-23T11:32:48;5.97;;;2.75;;
17510;SDS011;8873;48.818;9.422;2023-03-23T11:35:15;2.05;;;1.85;;
17510;SDS011;8873;48.818;9.422;2023-03-23T11:37:43;2.40;;;2.10;;
17510;SDS011;8873;48.818;9.422;2023-03-23T11:40:14;2.20;;;2.00;;
17510;SDS011;8873;48.818;9.422;2023-03-23T11:42:44;6.03;;;2.13;;
17510;SDS011;8873;48.818;9.422;2023-03-23T11:45:15;1.95;;;1.85;;
17510;SDS011;8873;48.818;9.422;2023-03-23T11:47:45;3.42;;;2.25;;
17510;SDS011;8873;48.818;9.422;2023-03-23T11:50:12;5.55;;;3.20;;
17510;SDS011;8873;48.818;9.422;2023-03-23T11:52:41;7.65;;;4.45;;
17510;SDS011;8873;48.818;9.422;2023-03-23T11:55:10;3.70;;;3.20;;
17510;SDS011;8873;48.818;9.422;2023-03-23T11:57:37;2.33;;;2.00;;
17510;SDS011;8873;48.818;9.422;2023-03-23T12:00:12;2.40;;;2.20;;
17510;SDS011;8873;48.818;9.422;2023-03-23T12:02:43;4.07;;;2.33;;
17510;SDS011;8873;48.818;9.422;2023-03-23T12:05:26;5.00;;;3.45;;
17510;SDS011;8873;48.818;9.422;2023-03-23T12:07:56;3.30;;;3.00;;
17510;SDS011;8873;48.818;9.422;2023-03-23T12:10:28;3.00;;;2.30;;
17510;SDS011;8873;48.818;9.422;2023-03-23T12:13:08;6.18;;;4.57;;
17510;SDS011;8873;48.818;9.422;2023-03-23T12:15:40;4.32;;;3.53;;
17510;SDS011;8873;48.818;9.422;2023-03-23T12:18:13;2.03;;;1.90;;
17510;SDS011;8873;48.818;9.422;2023-03-23T12:20:45;2.38;;;2.28;;
17510;SDS011;8873;48.818;9.422;2023-03-23T12:23:18;4.90;;;3.55;;
17510;SDS011;8873;48.818;9.422;2023-03-23T12:28:35;6.45;;;4.13;;
17510;SDS011;8873;48.818;9.422;2023-03-23T12:31:07;4.10;;;2.10;;
17510;SDS011;8873;48.818;9.422;2023-03-23T12:33:40;3.13;;;2.17;;
17510;SDS011;8873;48.818;9.422;2023-03-23T12:36:14;3.05;;;2.13;;
17510;SDS011;8873;48.818;9.422;2023-03-23T12:38:47;2.88;;;2.13;;
17510;SDS011;8873;48.818;9.422;2023-03-23T12:41:16;5.50;;;2.97;;
17510;SDS011;8873;48.818;9.422;2023-03-23T12:43:48;2.95;;;2.70;;
17510;SDS011;8873;48.818;9.422;2023-03-23T12:46:33;4.50;;;2.60;;
17510;SDS011;8873;48.818;9.422;2023-03-23T12:49:02;5.57;;;3.25;;
17510;SDS011;8873;48.818;9.422;2023-03-23T12:51:32;6.25;;;4.22;;
17510;SDS011;8873;48.818;9.422;2023-03-23T12:54:03;3.22;;;2.92;;
17510;SDS011;8873;48.818;9.422;2023-03-23T12:56:34;2.83;;;1.95;;
17510;SDS011;8873;48.818;9.422;2023-03-23T12:59:06;2.42;;;2.30;;
17510;SDS011;8873;48.818;9.422;2023-03-23T13:01:37;2.00;;;1.90;;
17510;SDS011;8873;48.818;9.422;2023-03-23T13:04:07;3.47;;;1.92;;
17510;SDS011;8873;48.818;9.422;2023-03-23T13:06:35;3.95;;;2.42;;
17510;SDS011;8873;48.818;9.422;2023-03-23T13:09:03;2.40;;;2.30;;
17510;SDS011;8873;48.818;9.422;2023-03-23T13:11:32;2.53;;;2.33;;
17510;SDS011;8873;48.818;9.422;2023-03-23T13:14:01;2.38;;;1.98;;
17510;SDS011;8873;48.818;9.422;2023-03-23T13:16:32;2.15;;;2.00;;
17510;SDS011;8873;48.818;9.422;2023-03-23T13:19:04;2.10;;;1.90;;
17510;SDS011;8873;48.818;9.422;2023-03-23T13:21:34;2.00;;;1.90;;
17510;SDS011;8873;48.818;9.422;2023-03-23T13:24:04;1.90;;;1.80;;
17510;SDS011;8873;48.818;9.422;2023-03-23T13:26:31;3.30;;;2.30;;
17510;SDS011;8873;48.818;9.422;2023-03-23T13:28:58;2.30;;;2.10;;
17510;SDS011;8873;48.818;9.422;2023-03-23T13:31:27;2.33;;;2.10;;
17510;SDS011;8873;48.818;9.422;2023-03-23T13:33:58;2.08;;;1.90;;
17510;SDS011;8873;48.818;9.422;2023-03-23T13:36:29;1.90;;;1.77;;
17510;SDS011;8873;48.818;9.422;2023-03-23T13:38:57;2.47;;;1.98;;
17510;SDS011;8873;48.818;9.422;2023-03-23T13:41:24;2.20;;;2.00;;
17510;SDS011;8873;48.818;9.422;2023-03-23T13:43:52;5.53;;;1.92;;
17510;SDS011;8873;48.818;9.422;2023-03-23T13:46:27;3.83;;;2.10;;
17510;SDS011;8873;48.818;9.422;2023-03-23T13:49:03;2.58;;;1.83;;
17510;SDS011;8873;48.818;9.422;2023-03-23T13:51:36;2.80;;;1.98;;
17510;SDS011;8873;48.818;9.422;2023-03-23T13:54:05;2.00;;;1.80;;
17510;SDS011;8873;48.818;9.422;2023-03-23T13:56:35;2.50;;;2.13;;
17510;SDS011;8873;48.818;9.422;2023-03-23T13:59:05;2.22;;;2.10;;
17510;SDS011;8873;48.818;9.422;2023-03-23T14:01:34;5.63;;;4.30;;
17510;SDS011;8873;48.818;9.422;2023-03-23T14:04:03;2.20;;;2.03;;
17510;SDS011;8873;48.818;9.422;2023-03-23T14:06:33;2.03;;;1.92;;
17510;SDS011;8873;48.818;9.422;2023-03-23T14:09:05;2.05;;;1.95;;
17510;SDS011;8873;48.818;9.422;2023-03-23T14:11:34;2.03;;;1.92;;
17510;SDS011;8873;48.818;9.422;2023-03-23T14:14:14;2.90;;;2.25;;
17510;SDS011;8873;48.818;9.422;2023-03-23T14:16:41;2.72;;;2.38;;
17510;SDS011;8873;48.818;9.422;2023-03-23T14:19:16;2.33;;;2.10;;
17510;SDS011;8873;48.818;9.422;2023-03-23T14:21:48;5.28;;;2.10;;
17510;SDS011;8873;48.818;9.422;2023-03-23T14:24:17;5.88;;;2.38;;
17510;SDS011;8873;48.818;9.422;2023-03-23T14:26:44;3.50;;;2.30;;
17510;SDS011;8873;48.818;9.422;2023-03-23T14:29:11;2.08;;;1.98;;
17510;SDS011;8873;48.818;9.422;2023-03-23T14:31:38;2.35;;;2.15;;
17510;SDS011;8873;48.818;9.422;2023-03-23T14:34:11;2.55;;;2.13;;
17510;SDS011;8873;48.818;9.422;2023-03-23T14:36:38;2.40;;;2.20;;
17510;SDS011;8873;48.818;9.422;2023-03-23T14:39:17;2.25;;;1.83;;
17510;SDS011;8873;48.818;9.422;2023-03-23T14:41:47;3.95;;;2.10;;
17510;SDS011;8873;48.818;9.422;2023-03-23T14:44:14;2.35;;;2.25;;
17510;SDS011;8873;48.818;9.422;2023-03-23T14:46:41;2.28;;;2.13;;
17510;SDS011;8873;48.818;9.422;2023-03-23T14:49:10;2.35;;;1.85;;
17510;SDS011;8873;48.818;9.422;2023-03-23T14:51:46;2.28;;;2.10;;
17510;SDS011;8873;48.818;9.422;2023-03-23T14:54:12;2.60;;;2.40;;
17510;SDS011;8873;48.818;9.422;2023-03-23T14:56:38;3.72;;;2.08;;
17510;SDS011;8873;48.818;9.422;2023-03-23T14:59:09;2.55;;;2.33;;
17510;SDS011;8873;48.818;9.422;2023-03-23T15:01:37;5.45;;;2.30;;
17510;SDS011;8873;48.818;9.422;2023-03-23T15:04:04;4.85;;;2.85;;
17510;SDS011;8873;48.818;9.422;2023-03-23T15:06:32;3.95;;;2.60;;
17510;SDS011;8873;48.818;9.422;2023-03-23T15:09:00;5.22;;;3.13;;
17510;SDS011;8873;48.818;9.422;2023-03-23T15:11:28;2.63;;;2.40;;
17510;SDS011;8873;48.818;9.422;2023-03-23T15:13:55;2.63;;;2.40;;
17510;SDS011;8873;48.818;9.422;2023-03-23T15:16:26;2.85;;;2.60;;